sensor_id;sensor_type;location;lat;lon;timestamp;P1;durP1;ratioP1;P2;durP2;ratioP2
48014;SDS011;33780;51.034;7.120;2024-03-02T00:00:14;2.45;;;1.38;;
48014;SDS011;33780;51.034;7.120;2024-03-02T00:02:43;2.60;;;1.30;;
48014;SDS011;33780;51.034;7.120;2024-03-02T00:05:13;2.47;;;1.20;;
48014;SDS011;33780;51.034;7.120;2024-03-02T00:07:41;2.67;;;1.40;;
48014;SDS011;33780;51.034;7.120;2024-03-02T00:10:08;2.47;;;1.25;;
48014;SDS011;33780;51.034;7.120;2024-03-02T00:12:35;1.80;;;1.00;;
48014;SDS011;33780;51.034;7.120;2024-03-02T00:15:01;2.97;;;1.20;;
48014;SDS011;33780;51.034;7.120;2024-03-02T00:17:52;1.67;;;0.90;;
48014;SDS011;33780;51.034;7.120;2024-03-02T00:20:18;2.78;;;1.40;;
48014;SDS011;33780;51.034;7.120;2024-03-02T00:22:47;3.67;;;1.10;;
48014;SDS011;33780;51.034;7.120;2024-03-02T00:25:12;1.88;;;1.10;;
48014;SDS011;33780;51.034;7.120;2024-03-02T00:27:37;2.22;;;0.95;;
48014;SDS011;33780;51.034;7.120;2024-03-02T00:30:06;1.90;;;1.20;;
48014;SDS011;33780;51.034;7.120;2024-03-02T00:32:53;2.88;;;1.10;;
48014;SDS011;33780;51.034;7.120;2024-03-02T00:35:18;3.13;;;1.10;;
48014;SDS011;33780;51.034;7.120;2024-03-02T00:37:47;4.05;;;1.20;;
48014;SDS011;33780;51.034;7.120;2024-03-02T00:40:12;2.10;;;1.20;;
48014;SDS011;33780;51.034;7.120;2024-03-02T00:42:39;2.60;;;1.10;;
48014;SDS011;33780;51.034;7.120;2024-03-02T00:45:07;1.92;;;0.98;;
48014;SDS011;33780;51.034;7.120;2024-03-02T00:47:34;1.65;;;1.00;;
48014;SDS011;33780;51.034;7.120;2024-03-02T00:50:03;2.13;;;1.10;;
48014;SDS011;33780;51.034;7.120;2024-03-02T00:52:30;1.90;;;1.10;;
48014;SDS011;33780;51.034;7.120;2024-03-02T00:54:58;2.25;;;0.90;;
48014;SDS011;33780;51.034;7.120;2024-03-02T00:57:24;2.15;;;1.00;;
48014;SDS011;33780;51.034;7.120;2024-03-02T00:59:50;1.67;;;1.00;;
48014;SDS011;33780;51.034;7.120;2024-03-02T01:02:16;2.00;;;0.90;;
48014;SDS011;33780;51.034;7.120;2024-03-02T01:04:41;2.38;;;1.13;;
48014;SDS011;33780;51.034;7.120;2024-03-02T01:07:07;2.78;;;0.90;;
48014;SDS011;33780;51.034;7.120;2024-03-02T01:09:32;2.15;;;0.90;;
48014;SDS011;33780;51.034;7.120;2024-03-02T01:11:57;1.58;;;0.90;;
48014;SDS011;33780;51.034;7.120;2024-03-02T01:14:23;1.75;;;0.90;;
48014;SDS011;33780;51.034;7.120;2024-03-02T01:16:48;2.10;;;0.93;;
48014;SDS011;33780;51.034;7.120;2024-03-02T01:19:14;3.83;;;1.00;;
48014;SDS011;33780;51.034;7.120;2024-03-02T01:21:39;2.53;;;0.93;;
48014;SDS011;33780;51.034;7.120;2024-03-02T01:24:05;1.67;;;0.80;;
48014;SDS011;33780;51.034;7.120;2024-03-02T01:26:30;1.55;;;0.90;;
48014;SDS011;33780;51.034;7.120;2024-03-02T01:28:56;1.60;;;0.77;;
48014;SDS011;33780;51.034;7.120;2024-03-02T01:31:21;2.65;;;1.08;;
48014;SDS011;33780;51.034;7.120;2024-03-02T01:33:47;2.67;;;1.00;;
48014;SDS011;33780;51.034;7.120;2024-03-02T01:36:12;1.73;;;0.75;;
48014;SDS011;33780;51.034;7.120;2024-03-02T01:38:37;1.58;;;0.80;;
48014;SDS011;33780;51.034;7.120;2024-03-02T01:41:03;1.45;;;0.65;;
48014;SDS011;33780;51.034;7.120;2024-03-02T01:43:28;1.40;;;0.70;;
48014;SDS011;33780;51.034;7.120;2024-03-02T01:45:53;1.83;;;0.90;;
48014;SDS011;33780;51.034;7.120;2024-03-02T01:48:19;2.38;;;1.10;;
48014;SDS011;33780;51.034;7.120;2024-03-02T01:50:44;1.92;;;0.90;;
48014;SDS011;33780;51.034;7.120;2024-03-02T01:53:09;2.25;;;0.80;;
48014;SDS011;33780;51.034;7.120;2024-03-02T01:55:35;2.08;;;1.00;;
48014;SDS011;33780;51.034;7.120;2024-03-02T01:58:01;1.60;;;0.80;;
48014;SDS011;33780;51.034;7.120;2024-03-02T02:00:26;2.00;;;1.02;;
48014;SDS011;33780;51.034;7.120;2024-03-02T02:02:52;1.60;;;0.80;;
48014;SDS011;33780;51.034;7.120;2024-03-02T02:05:18;2.22;;;1.00;;
48014;SDS011;33780;51.034;7.120;2024-03-02T02:07:43;2.63;;;1.00;;
48014;SDS011;33780;51.034;7.120;2024-03-02T02:10:09;2.38;;;0.98;;
48014;SDS011;33780;51.034;7.120;2024-03-02T02:12:35;1.90;;;0.90;;
48014;SDS011;33780;51.034;7.120;2024-03-02T02:15:01;1.95;;;0.85;;
48014;SDS011;33780;51.034;7.120;2024-03-02T02:17:27;3.13;;;1.02;;
48014;SDS011;33780;51.034;7.120;2024-03-02T02:19:52;3.15;;;0.90;;
48014;SDS011;33780;51.034;7.120;2024-03-02T02:22:17;2.65;;;1.10;;
48014;SDS011;33780;51.034;7.120;2024-03-02T02:24:43;2.00;;;0.82;;
48014;SDS011;33780;51.034;7.120;2024-03-02T02:27:08;1.75;;;0.80;;
48014;SDS011;33780;51.034;7.120;2024-03-02T02:29:35;1.42;;;0.80;;
48014;SDS011;33780;51.034;7.120;2024-03-02T02:32:01;1.83;;;0.90;;
48014;SDS011;33780;51.034;7.120;2024-03-02T02:34:26;1.70;;;1.00;;
48014;SDS011;33780;51.034;7.120;2024-03-02T02:36:52;1.80;;;0.90;;
48014;SDS011;33780;51.034;7.120;2024-03-02T02:39:18;2.08;;;0.90;;
48014;SDS011;33780;51.034;7.120;2024-03-02T02:41:46;1.60;;;0.80;;
48014;SDS011;33780;51.034;7.120;2024-03-02T02:44:11;1.63;;;0.80;;
48014;SDS011;33780;51.034;7.120;2024-03-02T02:46:38;2.55;;;0.93;;
48014;SDS011;33780;51.034;7.120;2024-03-02T02:49:04;1.70;;;0.88;;
48014;SDS011;33780;51.034;7.120;2024-03-02T02:51:29;1.52;;;0.80;;
48014;SDS011;33780;51.034;7.120;2024-03-02T02:53:54;1.83;;;1.00;;
48014;SDS011;33780;51.034;7.120;2024-03-02T02:56:20;2.72;;;0.90;;
48014;SDS011;33780;51.034;7.120;2024-03-02T02:58:45;2.38;;;1.00;;
48014;SDS011;33780;51.034;7.120;2024-03-02T03:01:10;1.35;;;0.70;;
48014;SDS011;33780;51.034;7.120;2024-03-02T03:03:36;1.70;;;0.80;;
48014;SDS011;33780;51.034;7.120;2024-03-02T03:06:01;2.17;;;0.80;;
48014;SDS011;33780;51.034;7.120;2024-03-02T03:08:27;1.98;;;0.80;;
48014;SDS011;33780;51.034;7.120;2024-03-02T03:10:52;1.88;;;0.70;;
48014;SDS011;33780;51.034;7.120;2024-03-02T03:13:18;2.78;;;1.00;;
48014;SDS011;33780;51.034;7.120;2024-03-02T03:15:43;2.30;;;0.85;;
48014;SDS011;33780;51.034;7.120;2024-03-02T03:18:08;2.20;;;0.90;;
48014;SDS011;33780;51.034;7.120;2024-03-02T03:20:35;1.80;;;0.95;;
48014;SDS011;33780;51.034;7.120;2024-03-02T03:23:01;2.35;;;0.88;;
48014;SDS011;33780;51.034;7.120;2024-03-02T03:25:26;2.20;;;1.00;;
48014;SDS011;33780;51.034;7.120;2024-03-02T03:27:52;2.20;;;1.00;;
48014;SDS011;33780;51.034;7.120;2024-03-02T03:30:20;2.25;;;0.90;;
48014;SDS011;33780;51.034;7.120;2024-03-02T03:32:45;2.28;;;0.90;;
48014;SDS011;33780;51.034;7.120;2024-03-02T03:35:13;1.55;;;0.88;;
48014;SDS011;33780;51.034;7.120;2024-03-02T03:37:39;1.95;;;0.93;;
48014;SDS011;33780;51.034;7.120;2024-03-02T03:40:05;2.45;;;1.00;;
48014;SDS011;33780;51.034;7.120;2024-03-02T03:42:35;2.17;;;1.02;;
48014;SDS011;33780;51.034;7.120;2024-03-02T03:45:03;1.73;;;1.08;;
48014;SDS011;33780;51.034;7.120;2024-03-02T03:47:31;2.35;;;0.90;;
48014;SDS011;33780;51.034;7.120;2024-03-02T03:49:56;1.77;;;0.90;;
48014;SDS011;33780;51.034;7.120;2024-03-02T03:52:21;2.28;;;1.10;;
48014;SDS011;33780;51.034;7.120;2024-03-02T03:54:47;2.45;;;0.95;;
48014;SDS011;33780;51.034;7.120;2024-03-02T03:57:12;2.42;;;0.90;;
48014;SDS011;33780;51.034;7.120;2024-03-02T03:59:37;2.38;;;1.00;;
48014;SDS011;33780;51.034;7.120;2024-03-02T04:02:03;2.55;;;0.90;;
48014;SDS011;33780;51.034;7.120;2024-03-02T04:04:28;1.90;;;1.00;;
48014;SDS011;33780;51.034;7.120;2024-03-02T04:06:54;2.58;;;1.30;;
48014;SDS011;33780;51.034;7.120;2024-03-02T04:09:19;2.53;;;1.10;;
48014;SDS011;33780;51.034;7.120;2024-03-02T04:11:44;2.10;;;0.90;;
48014;SDS011;33780;51.034;7.120;2024-03-02T04:14:10;2.08;;;1.00;;
48014;SDS011;33780;51.034;7.120;2024-03-02T04:16:35;2.92;;;1.08;;
48014;SDS011;33780;51.034;7.120;2024-03-02T04:19:00;2.53;;;0.88;;
48014;SDS011;33780;51.034;7.120;2024-03-02T04:21:26;1.92;;;1.10;;
48014;SDS011;33780;51.034;7.120;2024-03-02T04:23:51;1.30;;;0.75;;
48014;SDS011;33780;51.034;7.120;2024-03-02T04:26:16;2.40;;;1.00;;
48014;SDS011;33780;51.034;7.120;2024-03-02T04:28:47;3.42;;;1.27;;
48014;SDS011;33780;51.034;7.120;2024-03-02T04:31:12;1.77;;;1.00;;
48014;SDS011;33780;51.034;7.120;2024-03-02T04:33:37;3.63;;;1.30;;
48014;SDS011;33780;51.034;7.120;2024-03-02T04:36:03;2.45;;;1.00;;
48014;SDS011;33780;51.034;7.120;2024-03-02T04:38:29;1.90;;;1.10;;
48014;SDS011;33780;51.034;7.120;2024-03-02T04:40:55;2.03;;;1.13;;
48014;SDS011;33780;51.034;7.120;2024-03-02T04:43:20;3.00;;;1.13;;
48014;SDS011;33780;51.034;7.120;2024-03-02T04:45:46;2.47;;;1.10;;
48014;SDS011;33780;51.034;7.120;2024-03-02T04:48:11;2.10;;;1.15;;
48014;SDS011;33780;51.034;7.120;2024-03-02T04:50:36;3.20;;;1.00;;
48014;SDS011;33780;51.034;7.120;2024-03-02T04:53:02;2.13;;;1.10;;
48014;SDS011;33780;51.034;7.120;2024-03-02T04:55:27;1.95;;;1.05;;
48014;SDS011;33780;51.034;7.120;2024-03-02T04:57:53;3.33;;;1.20;;
48014;SDS011;33780;51.034;7.120;2024-03-02T05:00:21;2.70;;;1.50;;
48014;SDS011;33780;51.034;7.120;2024-03-02T05:02:46;2.90;;;1.40;;
48014;SDS011;33780;51.034;7.120;2024-03-02T05:05:12;1.90;;;1.05;;
48014;SDS011;33780;51.034;7.120;2024-03-02T05:07:38;2.33;;;1.20;;
48014;SDS011;33780;51.034;7.120;2024-03-02T05:10:03;3.58;;;1.25;;
48014;SDS011;33780;51.034;7.120;2024-03-02T05:12:29;1.98;;;1.10;;
48014;SDS011;33780;51.034;7.120;2024-03-02T05:15:14;2.15;;;1.20;;
48014;SDS011;33780;51.034;7.120;2024-03-02T05:17:40;2.00;;;1.20;;
48014;SDS011;33780;51.034;7.120;2024-03-02T05:20:08;2.15;;;1.10;;
48014;SDS011;33780;51.034;7.120;2024-03-02T05:22:34;3.13;;;1.10;;
48014;SDS011;33780;51.034;7.120;2024-03-02T05:25:00;2.38;;;1.10;;
48014;SDS011;33780;51.034;7.120;2024-03-02T05:27:26;4.78;;;1.17;;
48014;SDS011;33780;51.034;7.120;2024-03-02T05:29:52;2.10;;;0.98;;
48014;SDS011;33780;51.034;7.120;2024-03-02T05:32:17;2.58;;;1.08;;
48014;SDS011;33780;51.034;7.120;2024-03-02T05:34:42;1.83;;;0.90;;
48014;SDS011;33780;51.034;7.120;2024-03-02T05:37:08;2.15;;;1.00;;
48014;SDS011;33780;51.034;7.120;2024-03-02T05:39:33;1.85;;;0.90;;
48014;SDS011;33780;51.034;7.120;2024-03-02T05:41:58;2.35;;;1.20;;
48014;SDS011;33780;51.034;7.120;2024-03-02T05:44:24;2.35;;;1.08;;
48014;SDS011;33780;51.034;7.120;2024-03-02T05:46:49;2.65;;;1.40;;
48014;SDS011;33780;51.034;7.120;2024-03-02T05:49:14;3.08;;;1.40;;
48014;SDS011;33780;51.034;7.120;2024-03-02T05:51:40;3.88;;;1.80;;
48014;SDS011;33780;51.034;7.120;2024-03-02T05:54:06;2.80;;;1.70;;
48014;SDS011;33780;51.034;7.120;2024-03-02T05:56:32;3.00;;;1.70;;
48014;SDS011;33780;51.034;7.120;2024-03-02T05:58:57;3.20;;;1.70;;
48014;SDS011;33780;51.034;7.120;2024-03-02T06:01:37;3.22;;;1.70;;
48014;SDS011;33780;51.034;7.120;2024-03-02T06:04:06;3.88;;;1.67;;
48014;SDS011;33780;51.034;7.120;2024-03-02T06:06:32;3.03;;;1.55;;
48014;SDS011;33780;51.034;7.120;2024-03-02T06:08:59;2.80;;;1.58;;
48014;SDS011;33780;51.034;7.120;2024-03-02T06:11:30;4.28;;;2.00;;
48014;SDS011;33780;51.034;7.120;2024-03-02T06:13:55;3.53;;;2.00;;
48014;SDS011;33780;51.034;7.120;2024-03-02T06:16:21;3.28;;;2.00;;
48014;SDS011;33780;51.034;7.120;2024-03-02T06:18:46;2.67;;;1.70;;
48014;SDS011;33780;51.034;7.120;2024-03-02T06:21:12;3.50;;;1.80;;
48014;SDS011;33780;51.034;7.120;2024-03-02T06:23:37;4.18;;;2.05;;
48014;SDS011;33780;51.034;7.120;2024-03-02T06:26:02;4.10;;;2.00;;
48014;SDS011;33780;51.034;7.120;2024-03-02T06:28:28;3.75;;;1.92;;
48014;SDS011;33780;51.034;7.120;2024-03-02T06:30:54;3.90;;;2.20;;
48014;SDS011;33780;51.034;7.120;2024-03-02T06:33:19;3.65;;;1.90;;
48014;SDS011;33780;51.034;7.120;2024-03-02T06:35:44;3.30;;;1.90;;
48014;SDS011;33780;51.034;7.120;2024-03-02T06:38:10;4.20;;;2.00;;
48014;SDS011;33780;51.034;7.120;2024-03-02T06:40:35;3.10;;;1.83;;
48014;SDS011;33780;51.034;7.120;2024-03-02T06:43:02;4.75;;;1.95;;
48014;SDS011;33780;51.034;7.120;2024-03-02T06:45:28;3.63;;;1.77;;
48014;SDS011;33780;51.034;7.120;2024-03-02T06:47:55;3.40;;;2.03;;
48014;SDS011;33780;51.034;7.120;2024-03-02T06:50:21;3.97;;;2.00;;
48014;SDS011;33780;51.034;7.120;2024-03-02T06:52:46;4.20;;;1.90;;
48014;SDS011;33780;51.034;7.120;2024-03-02T06:55:12;4.10;;;2.20;;
48014;SDS011;33780;51.034;7.120;2024-03-02T06:57:37;2.97;;;1.90;;
48014;SDS011;33780;51.034;7.120;2024-03-02T07:00:04;4.15;;;2.00;;
48014;SDS011;33780;51.034;7.120;2024-03-02T07:02:30;3.08;;;1.88;;
48014;SDS011;33780;51.034;7.120;2024-03-02T07:04:55;4.20;;;1.95;;
48014;SDS011;33780;51.034;7.120;2024-03-02T07:07:21;4.75;;;1.98;;
48014;SDS011;33780;51.034;7.120;2024-03-02T07:09:46;3.22;;;1.90;;
48014;SDS011;33780;51.034;7.120;2024-03-02T07:12:13;3.10;;;1.65;;
48014;SDS011;33780;51.034;7.120;2024-03-02T07:14:38;3.88;;;1.80;;
48014;SDS011;33780;51.034;7.120;2024-03-02T07:17:42;3.33;;;1.98;;
48014;SDS011;33780;51.034;7.120;2024-03-02T07:20:07;3.65;;;1.88;;
48014;SDS011;33780;51.034;7.120;2024-03-02T07:22:34;2.78;;;1.60;;
48014;SDS011;33780;51.034;7.120;2024-03-02T07:24:59;3.05;;;1.67;;
48014;SDS011;33780;51.034;7.120;2024-03-02T07:27:24;3.55;;;2.08;;
48014;SDS011;33780;51.034;7.120;2024-03-02T07:29:50;3.13;;;1.67;;
48014;SDS011;33780;51.034;7.120;2024-03-02T07:32:15;3.88;;;2.03;;
48014;SDS011;33780;51.034;7.120;2024-03-02T07:34:40;2.85;;;1.73;;
48014;SDS011;33780;51.034;7.120;2024-03-02T07:37:06;3.63;;;2.13;;
48014;SDS011;33780;51.034;7.120;2024-03-02T07:39:31;3.10;;;2.00;;
48014;SDS011;33780;51.034;7.120;2024-03-02T07:41:57;3.05;;;1.67;;
48014;SDS011;33780;51.034;7.120;2024-03-02T07:44:22;3.15;;;1.75;;
48014;SDS011;33780;51.034;7.120;2024-03-02T07:46:48;3.47;;;1.90;;
48014;SDS011;33780;51.034;7.120;2024-03-02T07:49:17;3.67;;;1.80;;
48014;SDS011;33780;51.034;7.120;2024-03-02T07:51:43;3.55;;;1.60;;
48014;SDS011;33780;51.034;7.120;2024-03-02T07:54:09;5.80;;;1.90;;
48014;SDS011;33780;51.034;7.120;2024-03-02T07:56:34;3.35;;;1.52;;
48014;SDS011;33780;51.034;7.120;2024-03-02T07:59:03;3.05;;;1.67;;
48014;SDS011;33780;51.034;7.120;2024-03-02T08:01:29;4.32;;;1.85;;
48014;SDS011;33780;51.034;7.120;2024-03-02T08:03:59;2.78;;;1.48;;
48014;SDS011;33780;51.034;7.120;2024-03-02T08:06:26;2.80;;;1.48;;
48014;SDS011;33780;51.034;7.120;2024-03-02T08:08:59;2.90;;;1.83;;
48014;SDS011;33780;51.034;7.120;2024-03-02T08:11:25;2.42;;;1.30;;
48014;SDS011;33780;51.034;7.120;2024-03-02T08:13:55;4.20;;;1.52;;
48014;SDS011;33780;51.034;7.120;2024-03-02T08:16:22;3.05;;;1.73;;
48014;SDS011;33780;51.034;7.120;2024-03-02T08:18:48;3.35;;;1.60;;
48014;SDS011;33780;51.034;7.120;2024-03-02T08:21:14;2.63;;;1.52;;
48014;SDS011;33780;51.034;7.120;2024-03-02T08:23:40;3.03;;;1.40;;
48014;SDS011;33780;51.034;7.120;2024-03-02T08:26:07;3.38;;;1.30;;
48014;SDS011;33780;51.034;7.120;2024-03-02T08:28:33;2.25;;;1.27;;
48014;SDS011;33780;51.034;7.120;2024-03-02T08:30:58;3.00;;;1.50;;
48014;SDS011;33780;51.034;7.120;2024-03-02T08:33:24;3.70;;;1.50;;
48014;SDS011;33780;51.034;7.120;2024-03-02T08:35:49;4.47;;;1.50;;
48014;SDS011;33780;51.034;7.120;2024-03-02T08:38:15;2.70;;;1.58;;
48014;SDS011;33780;51.034;7.120;2024-03-02T08:40:40;2.53;;;1.20;;
48014;SDS011;33780;51.034;7.120;2024-03-02T08:43:06;3.65;;;1.35;;
48014;SDS011;33780;51.034;7.120;2024-03-02T08:45:31;4.50;;;1.50;;
48014;SDS011;33780;51.034;7.120;2024-03-02T08:47:57;2.45;;;1.15;;
48014;SDS011;33780;51.034;7.120;2024-03-02T08:50:22;2.17;;;1.30;;
48014;SDS011;33780;51.034;7.120;2024-03-02T08:52:48;3.17;;;1.52;;
48014;SDS011;33780;51.034;7.120;2024-03-02T08:55:13;2.78;;;1.33;;
48014;SDS011;33780;51.034;7.120;2024-03-02T08:57:39;3.92;;;1.40;;
48014;SDS011;33780;51.034;7.120;2024-03-02T09:00:07;2.38;;;1.10;;
48014;SDS011;33780;51.034;7.120;2024-03-02T09:02:33;2.30;;;1.08;;
48014;SDS011;33780;51.034;7.120;2024-03-02T09:04:59;1.75;;;1.05;;
48014;SDS011;33780;51.034;7.120;2024-03-02T09:07:24;2.13;;;1.20;;
48014;SDS011;33780;51.034;7.120;2024-03-02T09:09:50;3.38;;;1.00;;
48014;SDS011;33780;51.034;7.120;2024-03-02T09:12:15;2.13;;;1.02;;
48014;SDS011;33780;51.034;7.120;2024-03-02T09:14:40;2.65;;;1.20;;
48014;SDS011;33780;51.034;7.120;2024-03-02T09:17:06;4.05;;;1.23;;
48014;SDS011;33780;51.034;7.120;2024-03-02T09:19:32;2.13;;;1.10;;
48014;SDS011;33780;51.034;7.120;2024-03-02T09:21:57;2.28;;;1.10;;
48014;SDS011;33780;51.034;7.120;2024-03-02T09:24:23;2.88;;;1.30;;
48014;SDS011;33780;51.034;7.120;2024-03-02T09:26:49;2.67;;;1.10;;
48014;SDS011;33780;51.034;7.120;2024-03-02T09:29:15;3.45;;;1.40;;
48014;SDS011;33780;51.034;7.120;2024-03-02T09:31:40;2.78;;;1.42;;
48014;SDS011;33780;51.034;7.120;2024-03-02T09:34:07;2.28;;;1.00;;
48014;SDS011;33780;51.034;7.120;2024-03-02T09:36:32;3.05;;;1.20;;
48014;SDS011;33780;51.034;7.120;2024-03-02T09:38:58;1.80;;;1.10;;
48014;SDS011;33780;51.034;7.120;2024-03-02T09:41:23;2.08;;;1.08;;
48014;SDS011;33780;51.034;7.120;2024-03-02T09:43:49;1.77;;;1.00;;
48014;SDS011;33780;51.034;7.120;2024-03-02T09:46:15;3.67;;;0.98;;
48014;SDS011;33780;51.034;7.120;2024-03-02T09:48:40;2.65;;;1.10;;
48014;SDS011;33780;51.034;7.120;2024-03-02T09:51:06;2.25;;;1.10;;
48014;SDS011;33780;51.034;7.120;2024-03-02T09:53:33;3.88;;;1.30;;
48014;SDS011;33780;51.034;7.120;2024-03-02T09:56:02;1.70;;;1.00;;
48014;SDS011;33780;51.034;7.120;2024-03-02T09:58:27;2.25;;;0.90;;
48014;SDS011;33780;51.034;7.120;2024-03-02T10:00:54;1.73;;;0.85;;
48014;SDS011;33780;51.034;7.120;2024-03-02T10:03:19;2.28;;;0.85;;
48014;SDS011;33780;51.034;7.120;2024-03-02T10:05:46;2.47;;;0.80;;
48014;SDS011;33780;51.034;7.120;2024-03-02T10:08:11;3.03;;;1.23;;
48014;SDS011;33780;51.034;7.120;2024-03-02T10:10:37;2.15;;;1.05;;
48014;SDS011;33780;51.034;7.120;2024-03-02T10:13:10;1.73;;;0.90;;
48014;SDS011;33780;51.034;7.120;2024-03-02T10:15:36;1.80;;;0.90;;
48014;SDS011;33780;51.034;7.120;2024-03-02T10:18:03;3.72;;;1.05;;
48014;SDS011;33780;51.034;7.120;2024-03-02T10:20:29;2.92;;;1.05;;
48014;SDS011;33780;51.034;7.120;2024-03-02T10:22:55;4.47;;;1.20;;
48014;SDS011;33780;51.034;7.120;2024-03-02T10:25:34;2.78;;;1.10;;
48014;SDS011;33780;51.034;7.120;2024-03-02T10:27:59;2.03;;;0.90;;
48014;SDS011;33780;51.034;7.120;2024-03-02T10:30:26;2.85;;;1.05;;
48014;SDS011;33780;51.034;7.120;2024-03-02T10:32:54;2.50;;;1.10;;
48014;SDS011;33780;51.034;7.120;2024-03-02T10:35:21;3.10;;;1.15;;
48014;SDS011;33780;51.034;7.120;2024-03-02T10:37:54;4.25;;;1.08;;
48014;SDS011;33780;51.034;7.120;2024-03-02T10:45:28;1.70;;;0.90;;
48014;SDS011;33780;51.034;7.120;2024-03-02T10:47:54;2.35;;;1.00;;
48014;SDS011;33780;51.034;7.120;2024-03-02T10:50:20;1.67;;;1.00;;
48014;SDS011;33780;51.034;7.120;2024-03-02T10:52:45;4.38;;;1.10;;
48014;SDS011;33780;51.034;7.120;2024-03-02T10:55:11;2.75;;;1.05;;
48014;SDS011;33780;51.034;7.120;2024-03-02T10:57:41;2.47;;;1.00;;
48014;SDS011;33780;51.034;7.120;2024-03-02T11:00:11;1.52;;;1.00;;
48014;SDS011;33780;51.034;7.120;2024-03-02T11:05:39;2.55;;;1.20;;
48014;SDS011;33780;51.034;7.120;2024-03-02T11:08:09;1.98;;;1.00;;
48014;SDS011;33780;51.034;7.120;2024-03-02T11:10:45;2.17;;;1.13;;
48014;SDS011;33780;51.034;7.120;2024-03-02T11:13:16;1.45;;;0.90;;
48014;SDS011;33780;51.034;7.120;2024-03-02T11:15:53;2.80;;;0.95;;
48014;SDS011;33780;51.034;7.120;2024-03-02T11:18:24;2.60;;;1.17;;
48014;SDS011;33780;51.034;7.120;2024-03-02T11:20:50;1.83;;;0.90;;
48014;SDS011;33780;51.034;7.120;2024-03-02T11:23:15;1.92;;;0.90;;
48014;SDS011;33780;51.034;7.120;2024-03-02T11:25:41;3.80;;;1.13;;
48014;SDS011;33780;51.034;7.120;2024-03-02T11:28:06;2.97;;;0.98;;
48014;SDS011;33780;51.034;7.120;2024-03-02T11:33:08;1.90;;;1.00;;
48014;SDS011;33780;51.034;7.120;2024-03-02T11:35:34;1.60;;;0.82;;
48014;SDS011;33780;51.034;7.120;2024-03-02T11:38:07;2.58;;;0.80;;
48014;SDS011;33780;51.034;7.120;2024-03-02T11:40:34;2.53;;;0.90;;
48014;SDS011;33780;51.034;7.120;2024-03-02T11:43:08;2.33;;;0.80;;
48014;SDS011;33780;51.034;7.120;2024-03-02T11:45:35;1.70;;;0.80;;
48014;SDS011;33780;51.034;7.120;2024-03-02T11:48:04;2.33;;;0.70;;
48014;SDS011;33780;51.034;7.120;2024-03-02T11:53:02;3.05;;;0.80;;
48014;SDS011;33780;51.034;7.120;2024-03-02T11:55:36;1.77;;;0.60;;
48014;SDS011;33780;51.034;7.120;2024-03-02T11:58:03;1.17;;;0.70;;
48014;SDS011;33780;51.034;7.120;2024-03-02T12:00:29;1.33;;;0.55;;
48014;SDS011;33780;51.034;7.120;2024-03-02T12:02:59;1.63;;;0.70;;
48014;SDS011;33780;51.034;7.120;2024-03-02T12:05:32;1.30;;;0.70;;
48014;SDS011;33780;51.034;7.120;2024-03-02T12:07:59;1.88;;;0.77;;
48014;SDS011;33780;51.034;7.120;2024-03-02T12:10:26;1.48;;;0.70;;
48014;SDS011;33780;51.034;7.120;2024-03-02T12:13:10;2.15;;;0.60;;
48014;SDS011;33780;51.034;7.120;2024-03-02T12:15:38;1.63;;;0.80;;
48014;SDS011;33780;51.034;7.120;2024-03-02T12:18:05;2.13;;;0.80;;
48014;SDS011;33780;51.034;7.120;2024-03-02T12:20:32;2.63;;;0.80;;
48014;SDS011;33780;51.034;7.120;2024-03-02T12:22:58;2.08;;;0.93;;
48014;SDS011;33780;51.034;7.120;2024-03-02T12:25:25;1.75;;;0.75;;
48014;SDS011;33780;51.034;7.120;2024-03-02T12:27:55;1.77;;;0.68;;
48014;SDS011;33780;51.034;7.120;2024-03-02T12:30:23;2.03;;;0.77;;
48014;SDS011;33780;51.034;7.120;2024-03-02T12:32:49;1.63;;;0.70;;
48014;SDS011;33780;51.034;7.120;2024-03-02T12:35:15;1.88;;;0.93;;
48014;SDS011;33780;51.034;7.120;2024-03-02T12:37:44;2.65;;;0.90;;
48014;SDS011;33780;51.034;7.120;2024-03-02T12:40:10;1.30;;;0.65;;
48014;SDS011;33780;51.034;7.120;2024-03-02T12:42:37;1.40;;;0.70;;
48014;SDS011;33780;51.034;7.120;2024-03-02T12:45:03;1.67;;;0.70;;
48014;SDS011;33780;51.034;7.120;2024-03-02T12:47:29;2.00;;;0.70;;
48014;SDS011;33780;51.034;7.120;2024-03-02T12:49:54;1.77;;;0.70;;
48014;SDS011;33780;51.034;7.120;2024-03-02T12:52:23;1.10;;;0.50;;
48014;SDS011;33780;51.034;7.120;2024-03-02T12:54:49;1.23;;;0.50;;
48014;SDS011;33780;51.034;7.120;2024-03-02T12:57:18;2.70;;;0.63;;
48014;SDS011;33780;51.034;7.120;2024-03-02T12:59:47;1.23;;;0.52;;
48014;SDS011;33780;51.034;7.120;2024-03-02T13:02:19;2.40;;;0.60;;
48014;SDS011;33780;51.034;7.120;2024-03-02T13:04:50;2.15;;;0.60;;
48014;SDS011;33780;51.034;7.120;2024-03-02T13:07:19;2.28;;;0.98;;
48014;SDS011;33780;51.034;7.120;2024-03-02T13:09:46;1.52;;;0.70;;
48014;SDS011;33780;51.034;7.120;2024-03-02T13:12:12;1.95;;;0.60;;
48014;SDS011;33780;51.034;7.120;2024-03-02T13:14:41;1.25;;;0.70;;
48014;SDS011;33780;51.034;7.120;2024-03-02T13:17:07;1.30;;;0.60;;
48014;SDS011;33780;51.034;7.120;2024-03-02T13:19:34;1.50;;;0.60;;
48014;SDS011;33780;51.034;7.120;2024-03-02T13:21:59;1.23;;;0.60;;
48014;SDS011;33780;51.034;7.120;2024-03-02T13:24:26;1.52;;;0.60;;
48014;SDS011;33780;51.034;7.120;2024-03-02T13:26:54;1.15;;;0.60;;
48014;SDS011;33780;51.034;7.120;2024-03-02T13:29:22;1.70;;;0.65;;
48014;SDS011;33780;51.034;7.120;2024-03-02T13:31:47;1.23;;;0.60;;
48014;SDS011;33780;51.034;7.120;2024-03-02T13:34:13;1.40;;;0.60;;
48014;SDS011;33780;51.034;7.120;2024-03-02T13:36:38;2.03;;;0.75;;
48014;SDS011;33780;51.034;7.120;2024-03-02T13:39:04;1.80;;;0.52;;
48014;SDS011;33780;51.034;7.120;2024-03-02T13:41:35;2.08;;;0.63;;
48014;SDS011;33780;51.034;7.120;2024-03-02T13:44:01;1.55;;;0.52;;
48014;SDS011;33780;51.034;7.120;2024-03-02T13:46:27;1.10;;;0.50;;
48014;SDS011;33780;51.034;7.120;2024-03-02T13:48:53;1.63;;;0.50;;
48014;SDS011;33780;51.034;7.120;2024-03-02T13:51:19;1.10;;;0.60;;
48014;SDS011;33780;51.034;7.120;2024-03-02T13:53:45;1.38;;;0.50;;
48014;SDS011;33780;51.034;7.120;2024-03-02T13:56:10;1.90;;;0.50;;
48014;SDS011;33780;51.034;7.120;2024-03-02T13:58:36;2.00;;;0.70;;
48014;SDS011;33780;51.034;7.120;2024-03-02T14:01:02;1.80;;;0.65;;
48014;SDS011;33780;51.034;7.120;2024-03-02T14:03:29;2.97;;;0.68;;
48014;SDS011;33780;51.034;7.120;2024-03-02T14:05:55;2.83;;;0.77;;
48014;SDS011;33780;51.034;7.120;2024-03-02T14:08:20;1.55;;;0.60;;
48014;SDS011;33780;51.034;7.120;2024-03-02T14:10:46;1.67;;;0.70;;
48014;SDS011;33780;51.034;7.120;2024-03-02T14:13:11;3.03;;;0.80;;
48014;SDS011;33780;51.034;7.120;2024-03-02T14:15:37;1.60;;;0.60;;
48014;SDS011;33780;51.034;7.120;2024-03-02T14:18:05;1.60;;;0.60;;
48014;SDS011;33780;51.034;7.120;2024-03-02T14:20:31;1.30;;;0.55;;
48014;SDS011;33780;51.034;7.120;2024-03-02T14:22:57;1.52;;;0.60;;
48014;SDS011;33780;51.034;7.120;2024-03-02T14:25:24;2.22;;;0.68;;
48014;SDS011;33780;51.034;7.120;2024-03-02T14:27:50;1.23;;;0.50;;
48014;SDS011;33780;51.034;7.120;2024-03-02T14:30:15;1.17;;;0.52;;
48014;SDS011;33780;51.034;7.120;2024-03-02T14:32:41;0.90;;;0.50;;
48014;SDS011;33780;51.034;7.120;2024-03-02T14:35:06;2.63;;;0.68;;
48014;SDS011;33780;51.034;7.120;2024-03-02T14:37:35;1.13;;;0.50;;
48014;SDS011;33780;51.034;7.120;2024-03-02T14:40:01;3.85;;;0.50;;
48014;SDS011;33780;51.034;7.120;2024-03-02T14:42:26;2.50;;;0.80;;
48014;SDS011;33780;51.034;7.120;2024-03-02T14:44:56;1.35;;;0.52;;
48014;SDS011;33780;51.034;7.120;2024-03-02T14:47:21;1.48;;;0.60;;
48014;SDS011;33780;51.034;7.120;2024-03-02T14:49:47;1.45;;;0.70;;
48014;SDS011;33780;51.034;7.120;2024-03-02T14:52:12;1.65;;;0.60;;
48014;SDS011;33780;51.034;7.120;2024-03-02T14:54:37;1.42;;;0.60;;
48014;SDS011;33780;51.034;7.120;2024-03-02T14:57:03;1.02;;;0.50;;